Terminal Aerodrome Forecast
Issued by NWS

Home | Current Version | Previous Version | Graphics & Text | Print | Product List | Glossary On
Versions: 1 2 3 4 5 6 7 8 9 10 11 12 13 14 15 16 17 18 19 20 21 22 23 24 25 26 27 28 29 30 31 32
000
FTUS43 KLOT 282330
TAFDPA
TAF
KDPA 282330Z 2900/2924 18008KT 6SM -SHRA SCT040 OVC080
     FM290300 11007KT 5SM -SHRA BR SCT020 OVC035
     FM290900 VRB03KT 3SM BR VCSH OVC005
     FM291400 03008KT P6SM SCT005 BKN012
     FM291800 03008KT P6SM VCSH BKN035=

USA.gov is the U.S. government's official web portal to all federal, state and local government web resources and services.